Time;durP1;ratioP1;P1;durP2;ratioP2;P2;SDS_P1;SDS_P2;PMS_P1;PMS_P2;Temp;Humidity;BMP_temperature;BMP_pressure;BME280_temperature;BME280_humidity;BME280_pressure;Samples;Min_cycle;Max_cycle;Signal;HPM_P1;HPM_P2
2023/05/09 00:01:40;;;;;;;55.30;32.67;;;14.70;99.90;;;;;;6150754;23;20473;-92
2023/05/09 00:04:06;;;;;;;54.35;32.97;;;15.60;99.90;;;;;;6150118;23;20405;-94
2023/05/09 00:06:32;;;;;;;65.18;35.75;;;14.90;99.90;;;;;;6149631;23;20390;-94
2023/05/09 00:08:58;;;;;;;59.60;34.85;;;14.70;99.90;;;;;;6149784;23;20450;-93
2023/05/09 00:11:23;;;;;;;58.25;35.45;;;14.80;99.90;;;;;;6149707;23;20463;-93
2023/05/09 00:13:50;;;;;;;57.90;34.63;;;15.10;99.90;;;;;;6150811;23;21189;-94
2023/05/09 00:16:16;;;;;;;63.65;36.80;;;14.80;99.90;;;;;;6149968;23;20866;-93
2023/05/09 00:18:42;;;;;;;66.80;36.73;;;15.20;99.90;;;;;;6152315;23;20412;-93
2023/05/09 00:21:09;;;;;;;61.03;35.70;;;15.10;99.90;;;;;;6151611;23;20452;-94
2023/05/09 00:23:36;;;;;;;63.60;36.63;;;15.00;99.90;;;;;;6151809;23;20403;-93
2023/05/09 00:26:02;;;;;;;69.70;38.80;;;15.20;99.90;;;;;;6127588;23;20393;-92
2023/05/09 00:28:27;;;;;;;71.88;38.47;;;14.70;99.90;;;;;;6152130;23;20388;-94
2023/05/09 00:30:53;;;;;;;64.37;37.00;;;14.90;99.90;;;;;;6152000;23;20404;-94
2023/05/09 00:33:19;;;;;;;61.67;35.30;;;14.90;99.90;;;;;;6151456;23;20383;-93
2023/05/09 00:35:45;;;;;;;65.22;36.03;;;14.80;99.90;;;;;;6152629;23;20456;-93
2023/05/09 00:38:12;;;;;;;66.75;37.55;;;14.60;99.90;;;;;;6151230;23;20405;-92
2023/05/09 00:40:38;;;;;;;71.28;38.10;;;14.70;99.90;;;;;;6127793;23;20578;-94
2023/05/09 00:43:03;;;;;;;73.68;39.15;;;14.60;99.90;;;;;;6151595;23;20843;-92
2023/05/09 00:45:29;;;;;;;71.90;38.55;;;14.60;99.90;;;;;;6151567;23;20452;-92
2023/05/09 00:47:56;;;;;;;72.10;39.65;;;14.60;99.90;;;;;;6126989;23;20404;-91
2023/05/09 00:50:25;;;;;;;71.43;40.35;;;14.80;99.90;;;;;;6126866;23;20368;-94
2023/05/09 00:52:51;;;;;;;69.75;38.30;;;15.10;99.90;;;;;;6127809;23;20366;-93
2023/05/09 00:55:17;;;;;;;69.35;37.97;;;14.80;99.90;;;;;;6151143;23;20396;-93
2023/05/09 00:57:43;;;;;;;66.53;38.08;;;15.00;99.90;;;;;;6127826;23;20703;-93
2023/05/09 01:00:13;;;;;;;66.22;38.63;;;14.70;99.90;;;;;;6126518;23;20372;-93
2023/05/09 01:02:45;;;;;;;69.97;39.03;;;14.70;99.90;;;;;;6126621;23;20369;-93
2023/05/09 01:05:11;;;;;;;75.35;39.53;;;14.70;99.90;;;;;;6127274;23;20381;-92
2023/05/09 01:07:59;;;;;;;68.43;38.90;;;14.70;99.90;;;;;;6126580;23;20472;-93
2023/05/09 01:10:28;;;;;;;67.90;38.88;;;14.90;99.90;;;;;;6128132;23;20382;-93
2023/05/09 01:13:14;;;;;;;68.45;37.40;;;14.70;99.90;;;;;;6125901;23;20409;-93
2023/05/09 01:15:53;;;;;;;73.68;39.50;;;15.10;99.90;;;;;;6127037;23;20516;-94
2023/05/09 01:18:41;;;;;;;73.60;40.05;;;15.60;99.90;;;;;;6127085;23;20373;-93
2023/05/09 01:21:15;;;;;;;79.63;42.07;;;14.90;99.90;;;;;;6126781;23;20377;-93
2023/05/09 01:23:43;;;;;;;77.53;41.72;;;14.70;99.90;;;;;;6127628;23;20384;-93
2023/05/09 01:26:20;;;;;;;77.75;41.40;;;15.50;99.90;;;;;;6126920;23;20862;-94
2023/05/09 01:29:05;;;;;;;83.03;41.28;;;14.70;99.90;;;;;;6126249;23;20420;-93
2023/05/09 01:31:33;;;;;;;80.55;41.03;;;14.70;99.90;;;;;;6126738;23;20401;-94
2023/05/09 01:34:01;;;;;;;94.20;44.33;;;14.30;99.90;;;;;;6125743;23;20369;-93
2023/05/09 01:36:31;;;;;;;73.68;40.50;;;14.70;99.90;;;;;;6127254;23;20372;-93
2023/05/09 01:38:58;;;;;;;82.40;42.28;;;15.10;99.90;;;;;;6125916;23;20743;-94
2023/05/09 01:41:27;;;;;;;87.80;42.97;;;14.90;99.90;;;;;;6126222;23;20365;-93
2023/05/09 01:43:54;;;;;;;85.47;42.67;;;15.60;99.90;;;;;;6126246;23;20453;-93
2023/05/09 01:46:21;;;;;;;84.78;42.17;;;14.70;99.90;;;;;;6126257;23;20393;-93
2023/05/09 01:48:48;;;;;;;80.93;42.10;;;15.20;99.90;;;;;;6126564;23;20370;-92
2023/05/09 01:51:16;;;;;;;76.80;41.30;;;15.10;99.90;;;;;;6151058;23;20456;-92
2023/05/09 01:53:42;;;;;;;75.45;41.17;;;14.70;99.90;;;;;;6126994;23;20452;-93
2023/05/09 01:56:09;;;;;;;76.70;40.80;;;14.70;99.90;;;;;;6125958;23;20365;-94
2023/05/09 01:58:37;;;;;;;82.65;42.38;;;15.20;99.90;;;;;;6127010;23;20369;-92
2023/05/09 02:01:04;;;;;;;74.30;41.28;;;14.60;99.90;;;;;;6151242;23;20374;-93
2023/05/09 02:03:32;;;;;;;84.10;42.55;;;14.60;99.90;;;;;;6127011;23;20368;-93
2023/05/09 02:05:59;;;;;;;81.05;41.22;;;15.00;99.90;;;;;;6126648;23;20457;-94
2023/05/09 02:08:26;;;;;;;82.80;41.27;;;15.00;99.90;;;;;;6125727;23;20448;-93
2023/05/09 02:10:52;;;;;;;80.32;41.00;;;15.00;99.90;;;;;;6126685;23;20401;-93
2023/05/09 02:13:18;;;;;;;90.38;43.22;;;14.70;99.90;;;;;;6150367;23;20376;-93
2023/05/09 02:15:44;;;;;;;82.47;42.40;;;15.00;99.90;;;;;;6151163;23;20373;-95
2023/05/09 02:18:10;;;;;;;83.15;43.38;;;14.70;99.90;;;;;;6150946;23;20373;-94
2023/05/09 02:20:36;;;;;;;75.35;41.05;;;15.00;99.90;;;;;;6150799;23;20377;-94
2023/05/09 02:23:05;;;;;;;84.57;43.40;;;15.00;99.90;;;;;;6151348;23;20412;-94
2023/05/09 02:25:32;;;;;;;79.68;42.28;;;15.00;99.90;;;;;;6150076;23;20408;-93
2023/05/09 02:27:59;;;;;;;82.50;42.97;;;14.70;99.90;;;;;;6151443;23;20392;-93
2023/05/09 02:30:28;;;;;;;88.05;43.78;;;15.50;99.90;;;;;;6127396;23;20377;-94
2023/05/09 02:33:02;;;;;;;86.45;44.42;;;15.20;99.90;;;;;;6130712;23;20365;-93
2023/05/09 02:35:28;;;;;;;93.80;45.63;;;15.00;99.90;;;;;;6137196;23;20393;-95
2023/05/09 02:38:31;;;;;;;83.70;43.75;;;14.60;99.90;;;;;;6140620;23;20374;-95
2023/05/09 03:00:37;;;;;;;85.55;44.33;;;14.60;99.90;;;;;;6101476;23;20413;-96
2023/05/09 03:03:06;;;;;;;85.35;44.45;;;14.60;99.90;;;;;;6069548;23;20411;-95
2023/05/09 03:09:46;;;;;;;88.90;45.00;;;14.70;99.90;;;;;;6092426;23;20379;-94
2023/05/09 03:12:19;;;;;;;92.38;46.35;;;14.60;99.90;;;;;;6070639;23;20460;-94
2023/05/09 03:14:48;;;;;;;88.32;46.25;;;15.00;99.90;;;;;;6159302;23;20387;-94
2023/05/09 03:17:19;;;;;;;93.53;46.22;;;15.00;99.90;;;;;;6161894;23;20455;-95
2023/05/09 03:19:48;;;;;;;93.80;45.73;;;14.60;99.90;;;;;;6162202;23;20379;-94
2023/05/09 03:22:14;;;;;;;93.60;47.00;;;14.80;99.90;;;;;;6160899;23;20390;-93
2023/05/09 03:24:53;;;;;;;86.50;45.75;;;14.60;99.90;;;;;;6160638;23;20371;-93
2023/05/09 03:27:21;;;;;;;95.20;45.15;;;15.30;99.90;;;;;;6164148;23;20392;-94
2023/05/09 03:29:47;;;;;;;94.05;46.90;;;14.60;99.90;;;;;;6159217;23;20368;-94
2023/05/09 03:32:13;;;;;;;94.00;46.77;;;15.20;99.90;;;;;;6159041;23;20386;-94
2023/05/09 03:34:39;;;;;;;92.05;46.05;;;14.90;99.90;;;;;;6182425;23;20371;-94
2023/05/09 03:37:05;;;;;;;93.20;46.40;;;14.60;99.90;;;;;;6184919;23;20391;-94
2023/05/09 03:39:32;;;;;;;88.80;43.83;;;14.60;99.90;;;;;;6158069;23;20450;-95
2023/05/09 03:42:03;;;;;;;101.22;47.70;;;14.80;99.90;;;;;;6156918;23;20379;-94
2023/05/09 03:44:28;;;;;;;87.97;45.38;;;15.60;99.90;;;;;;6158887;23;20458;-94
2023/05/09 03:46:54;;;;;;;93.00;47.38;;;15.00;99.90;;;;;;6180610;23;20434;-93
2023/05/09 03:49:20;;;;;;;97.03;47.40;;;14.60;99.90;;;;;;6158942;23;20375;-94
2023/05/09 03:51:53;;;;;;;95.03;47.13;;;14.80;99.90;;;;;;6181211;23;20372;-96
2023/05/09 03:54:18;;;;;;;91.80;46.45;;;14.60;99.90;;;;;;6160436;23;20702;-94
2023/05/09 03:56:44;;;;;;;93.85;46.47;;;15.00;99.90;;;;;;6158452;23;20411;-92
2023/05/09 03:59:10;;;;;;;104.33;48.93;;;14.50;99.90;;;;;;6184315;23;20399;-93
2023/05/09 04:01:35;;;;;;;88.50;45.63;;;14.30;99.90;;;;;;6185972;23;20376;-93
2023/05/09 04:04:01;;;;;;;99.67;47.67;;;14.80;99.90;;;;;;6183336;23;20376;-94
2023/05/09 04:06:28;;;;;;;94.10;46.22;;;14.90;99.90;;;;;;6185338;23;20954;-94
2023/05/09 04:08:54;;;;;;;92.20;47.00;;;14.60;99.90;;;;;;6157849;23;20396;-93
2023/05/09 04:11:22;;;;;;;92.85;46.97;;;14.90;99.90;;;;;;6185113;23;20363;-94
2023/05/09 04:13:48;;;;;;;94.63;46.00;;;14.40;99.90;;;;;;6157650;23;20403;-93
2023/05/09 04:16:14;;;;;;;95.95;47.72;;;14.80;99.90;;;;;;6159874;23;20368;-95
2023/05/09 04:18:41;;;;;;;92.87;47.57;;;14.90;99.90;;;;;;6184337;23;20446;-93
2023/05/09 04:21:07;;;;;;;103.40;49.67;;;14.50;99.90;;;;;;6158150;23;20374;-94
2023/05/09 04:23:33;;;;;;;96.38;48.95;;;14.80;99.90;;;;;;6184829;23;20856;-94
2023/05/09 04:25:58;;;;;;;96.57;47.67;;;14.50;99.90;;;;;;6157481;23;20391;-94
2023/05/09 04:28:24;;;;;;;96.60;47.88;;;14.70;99.90;;;;;;6159978;23;20399;-94
2023/05/09 04:30:50;;;;;;;94.50;48.90;;;14.50;99.90;;;;;;6157284;23;20372;-94
2023/05/09 04:33:16;;;;;;;101.40;49.70;;;14.60;99.90;;;;;;6185251;23;20399;-95
2023/05/09 04:35:41;;;;;;;97.30;49.10;;;15.00;99.90;;;;;;6182571;23;20368;-94
2023/05/09 04:38:07;;;;;;;110.47;51.33;;;14.70;99.90;;;;;;6184075;23;20439;-94
2023/05/09 04:40:33;;;;;;;95.57;48.47;;;15.30;99.90;;;;;;6183669;23;20390;-93
2023/05/09 04:42:59;;;;;;;102.40;50.33;;;14.40;99.90;;;;;;6158609;23;20436;-94
2023/05/09 04:45:24;;;;;;;97.53;49.30;;;15.20;99.90;;;;;;6184568;23;20397;-95
2023/05/09 04:47:50;;;;;;;104.70;51.75;;;14.70;99.90;;;;;;6156501;23;20726;-94
2023/05/09 04:50:16;;;;;;;108.43;50.40;;;14.90;99.90;;;;;;6184535;23;20892;-95
2023/05/09 04:52:42;;;;;;;97.90;49.50;;;14.90;99.90;;;;;;6156438;23;20679;-94
2023/05/09 04:55:08;;;;;;;96.07;50.65;;;14.80;99.90;;;;;;6184475;23;20487;-94
2023/05/09 04:57:33;;;;;;;97.72;50.63;;;14.80;99.90;;;;;;6158033;23;20372;-95
2023/05/09 04:59:59;;;;;;;100.85;52.03;;;15.10;99.90;;;;;;6184026;23;20382;-95
2023/05/09 05:02:25;;;;;;;108.33;52.83;;;14.80;99.90;;;;;;6158731;23;20371;-94
2023/05/09 05:04:51;;;;;;;103.53;52.65;;;14.80;99.90;;;;;;6181974;23;20372;-94
2023/05/09 05:07:20;;;;;;;105.80;52.58;;;15.30;99.90;;;;;;6159019;23;20522;-93
2023/05/09 05:09:45;;;;;;;95.97;51.63;;;15.40;99.90;;;;;;6156495;23;20368;-95
2023/05/09 05:12:11;;;;;;;107.67;53.87;;;15.10;99.90;;;;;;6159462;23;20375;-94
2023/05/09 05:14:37;;;;;;;97.68;51.70;;;14.90;99.90;;;;;;6156927;23;20375;-94
2023/05/09 05:17:03;;;;;;;97.80;52.67;;;15.00;99.90;;;;;;6184077;23;20380;-94
2023/05/09 05:19:28;;;;;;;97.40;51.97;;;15.20;99.90;;;;;;6155911;23;20460;-94
2023/05/09 05:21:57;;;;;;;96.93;52.55;;;15.20;99.90;;;;;;6187697;23;20915;-93
2023/05/09 05:24:25;;;;;;;103.65;53.40;;;15.20;99.90;;;;;;6158895;23;20681;-94
2023/05/09 05:26:51;;;;;;;104.50;54.10;;;15.30;99.90;;;;;;6183765;23;20449;-93
2023/05/09 05:29:17;;;;;;;103.85;52.95;;;15.00;99.90;;;;;;6185798;23;20371;-92
2023/05/09 05:31:43;;;;;;;95.63;52.30;;;15.00;99.90;;;;;;6156541;23;20755;-93
2023/05/09 05:34:11;;;;;;;105.95;54.40;;;15.10;99.90;;;;;;6184302;23;20394;-93
2023/05/09 05:36:37;;;;;;;109.22;55.40;;;15.00;99.90;;;;;;6157530;23;20375;-93
2023/05/09 05:39:03;;;;;;;113.67;57.00;;;15.00;99.90;;;;;;6165151;23;20591;-93
2023/05/09 05:41:28;;;;;;;110.57;56.25;;;15.30;99.90;;;;;;6161520;23;20954;-94
2023/05/09 05:43:59;;;;;;;116.87;58.33;;;15.10;99.90;;;;;;6186413;23;20379;-95
2023/05/09 05:46:27;;;;;;;110.33;57.60;;;15.10;99.90;;;;;;6160929;23;20517;-94
2023/05/09 05:48:53;;;;;;;103.38;56.63;;;15.60;99.90;;;;;;6161932;23;20450;-94
2023/05/09 05:51:18;;;;;;;113.00;59.20;;;15.60;99.90;;;;;;6162513;23;20442;-95
2023/05/09 05:54:13;;;;;;;115.57;60.20;;;15.70;99.90;;;;;;6184247;23;20937;-95
2023/05/09 05:56:42;;;;;;;103.55;56.92;;;16.30;99.90;;;;;;6185460;23;20380;-95
2023/05/09 05:59:07;;;;;;;109.45;58.75;;;16.10;99.90;;;;;;6186155;23;20403;-93
2023/05/09 06:01:33;;;;;;;110.80;60.30;;;16.10;99.90;;;;;;6164075;23;20378;-94
2023/05/09 06:04:06;;;;;;;107.75;59.30;;;16.50;99.90;;;;;;6186767;23;20383;-94
2023/05/09 06:06:35;;;;;;;108.57;59.28;;;16.00;99.90;;;;;;6165219;23;20978;-94
2023/05/09 06:09:01;;;;;;;97.07;56.53;;;16.00;99.90;;;;;;6161795;23;20395;-94
2023/05/09 06:11:35;;;;;;;98.63;57.10;;;16.10;99.90;;;;;;6160244;23;20376;-94
2023/05/09 06:14:13;;;;;;;103.60;57.33;;;16.40;99.90;;;;;;6159770;23;20380;-94
2023/05/09 06:16:38;;;;;;;106.25;60.33;;;16.20;99.90;;;;;;6159036;23;20471;-94
2023/05/09 06:19:04;;;;;;;104.32;58.50;;;16.30;99.90;;;;;;6159351;23;20441;-93
2023/05/09 06:21:30;;;;;;;107.17;59.53;;;16.00;99.90;;;;;;6181608;23;20382;-94
2023/05/09 06:24:04;;;;;;;102.85;58.55;;;16.30;99.90;;;;;;6186616;23;20848;-94
2023/05/09 06:26:30;;;;;;;103.43;59.42;;;16.10;99.90;;;;;;6160495;23;20406;-94
2023/05/09 06:28:56;;;;;;;97.20;57.38;;;16.40;99.90;;;;;;6184175;23;20817;-94
2023/05/09 06:31:21;;;;;;;99.57;57.20;;;16.30;99.90;;;;;;6181514;23;20442;-95
2023/05/09 06:33:52;;;;;;;106.38;59.15;;;16.40;99.90;;;;;;6183639;23;20461;-94
2023/05/09 06:36:17;;;;;;;104.25;60.00;;;16.30;99.90;;;;;;6157227;23;20707;-94
2023/05/09 06:38:43;;;;;;;107.05;59.08;;;16.90;99.90;;;;;;6181947;23;20387;-93
2023/05/09 06:41:09;;;;;;;94.33;56.70;;;16.50;99.90;;;;;;6182797;23;20451;-95
2023/05/09 06:43:34;;;;;;;95.50;56.55;;;16.60;99.90;;;;;;6181418;23;20697;-96
2023/05/09 06:46:01;;;;;;;97.68;57.45;;;16.40;99.90;;;;;;6184010;23;20941;-94
2023/05/09 06:48:26;;;;;;;96.53;57.00;;;16.30;99.90;;;;;;6155917;23;20374;-94
2023/05/09 06:50:52;;;;;;;92.87;57.50;;;16.00;99.90;;;;;;6183322;23;20375;-96
2023/05/09 06:53:18;;;;;;;93.47;56.78;;;16.50;99.90;;;;;;6183597;23;20372;-95
2023/05/09 06:55:43;;;;;;;103.40;58.63;;;16.70;99.90;;;;;;6182548;23;20378;-94
2023/05/09 06:58:12;;;;;;;94.28;56.20;;;16.20;99.90;;;;;;6185226;23;20368;-94
2023/05/09 07:00:37;;;;;;;85.93;54.90;;;16.40;99.90;;;;;;6184286;23;20466;-96
2023/05/09 07:03:05;;;;;;;88.07;55.10;;;16.80;99.90;;;;;;6183156;23;20686;-94
2023/05/09 07:05:32;;;;;;;92.80;56.75;;;16.60;99.90;;;;;;6155994;23;20379;-95
2023/05/09 07:07:57;;;;;;;83.43;54.75;;;16.50;99.90;;;;;;6157513;23;20368;-94
2023/05/09 07:10:23;;;;;;;90.82;56.30;;;16.10;99.90;;;;;;6181038;23;20439;-94
2023/05/09 07:12:55;;;;;;;85.20;53.90;;;16.80;99.90;;;;;;6162920;23;20368;-95
2023/05/09 07:15:21;;;;;;;86.85;55.15;;;16.90;99.90;;;;;;6162668;23;20368;-93
2023/05/09 07:17:46;;;;;;;80.80;53.33;;;16.70;99.90;;;;;;6159586;23;20478;-94
2023/05/09 07:20:14;;;;;;;86.35;55.70;;;16.80;99.90;;;;;;6184326;23;20375;-95
2023/05/09 07:22:40;;;;;;;85.70;55.67;;;16.90;99.90;;;;;;6158628;23;20839;-94
2023/05/09 07:25:07;;;;;;;80.85;53.45;;;17.10;99.90;;;;;;6156767;23;20395;-95
2023/05/09 07:27:33;;;;;;;76.28;52.65;;;17.20;99.90;;;;;;6161655;23;20403;-92
2023/05/09 07:29:59;;;;;;;79.35;53.60;;;17.30;99.90;;;;;;6160890;23;20415;-92
2023/05/09 07:32:27;;;;;;;77.37;53.67;;;17.50;99.90;;;;;;6159261;23;20414;-94
2023/05/09 07:34:53;;;;;;;81.93;54.17;;;17.30;99.90;;;;;;6160088;23;20955;-93
2023/05/09 07:37:19;;;;;;;79.45;52.45;;;17.80;99.90;;;;;;6159199;23;20745;-93
2023/05/09 07:39:46;;;;;;;76.13;52.63;;;17.20;99.90;;;;;;6158886;23;20375;-95
2023/05/09 07:42:12;;;;;;;81.05;54.10;;;17.50;99.90;;;;;;6158472;23;20368;-93
2023/05/09 07:44:38;;;;;;;81.72;53.65;;;17.20;99.90;;;;;;6159067;23;20375;-95
2023/05/09 07:47:07;;;;;;;81.70;55.00;;;17.10;99.90;;;;;;6157519;23;20395;-94
2023/05/09 07:49:42;;;;;;;81.15;54.08;;;17.30;99.90;;;;;;6159609;23;20716;-95
2023/05/09 07:52:10;;;;;;;81.07;53.50;;;17.40;99.90;;;;;;6159346;23;20394;-93
2023/05/09 07:54:36;;;;;;;82.72;55.15;;;17.10;99.90;;;;;;6158473;23;20407;-94
2023/05/09 07:57:01;;;;;;;77.75;53.17;;;17.30;99.90;;;;;;6183604;23;20406;-94
2023/05/09 07:59:27;;;;;;;89.03;56.00;;;17.20;99.90;;;;;;6182635;23;20826;-95
2023/05/09 08:01:53;;;;;;;80.65;54.80;;;17.30;99.90;;;;;;6184535;23;20458;-94
2023/05/09 08:04:18;;;;;;;82.40;55.47;;;17.50;99.90;;;;;;6182215;23;20378;-94
2023/05/09 08:06:44;;;;;;;82.97;55.42;;;17.60;99.90;;;;;;6183663;23;20490;-93
2023/05/09 08:09:20;;;;;;;81.37;54.70;;;17.90;99.90;;;;;;6183798;23;20367;-94
2023/05/09 08:11:46;;;;;;;72.40;50.47;;;17.60;99.90;;;;;;6157969;23;20760;-95
2023/05/09 08:14:11;;;;;;;72.80;51.17;;;17.80;99.90;;;;;;6159205;23;20367;-93
2023/05/09 08:16:42;;;;;;;72.80;49.73;;;17.70;99.90;;;;;;6160145;23;20371;-93
2023/05/09 08:19:07;;;;;;;75.03;52.67;;;17.40;99.90;;;;;;6159273;23;20375;-94
2023/05/09 08:21:33;;;;;;;73.30;50.67;;;17.30;99.90;;;;;;6157830;23;20382;-94
2023/05/09 08:24:00;;;;;;;74.85;50.85;;;17.50;99.90;;;;;;6185343;23;20375;-94
2023/05/09 08:26:26;;;;;;;70.85;50.20;;;17.40;99.90;;;;;;6157900;23;20427;-92
2023/05/09 08:28:53;;;;;;;74.60;51.03;;;17.60;99.90;;;;;;6158914;23;20363;-94
2023/05/09 08:31:18;;;;;;;69.05;49.33;;;17.20;99.90;;;;;;6159175;23;20450;-92
2023/05/09 08:33:44;;;;;;;73.07;50.75;;;17.50;99.90;;;;;;6182856;23;20456;-94
2023/05/09 08:36:10;;;;;;;71.83;49.60;;;17.40;99.90;;;;;;6158410;23;20753;-94
2023/05/09 08:38:38;;;;;;;71.32;50.17;;;17.70;99.90;;;;;;6157649;23;20391;-92
2023/05/09 08:41:03;;;;;;;69.00;48.97;;;17.20;99.90;;;;;;6158438;23;20375;-93
2023/05/09 08:43:31;;;;;;;69.28;48.78;;;17.50;99.90;;;;;;6181985;23;20438;-92
2023/05/09 08:46:05;;;;;;;67.10;47.63;;;17.50;99.90;;;;;;6158990;23;20396;-94
2023/05/09 08:48:36;;;;;;;67.20;48.23;;;17.90;99.90;;;;;;6158031;23;20376;-93
2023/05/09 08:51:06;;;;;;;62.80;46.00;;;18.30;99.90;;;;;;6157946;23;20454;-92
2023/05/09 08:53:32;;;;;;;66.78;48.03;;;17.70;99.90;;;;;;6158088;23;20389;-93
2023/05/09 08:56:00;;;;;;;59.40;43.75;;;17.90;99.90;;;;;;6157741;23;20417;-93
2023/05/09 08:58:26;;;;;;;57.20;42.90;;;18.10;99.90;;;;;;6158521;23;20367;-93
2023/05/09 09:00:54;;;;;;;57.60;41.92;;;18.30;99.90;;;;;;6157343;23;20406;-93
2023/05/09 09:03:20;;;;;;;51.43;38.43;;;18.00;99.90;;;;;;6158917;23;20364;-93
2023/05/09 09:05:46;;;;;;;49.63;36.90;;;18.50;99.90;;;;;;6157711;23;20428;-94
2023/05/09 09:08:14;;;;;;;44.65;34.47;;;18.00;99.90;;;;;;6158004;23;20577;-94
2023/05/09 09:10:45;;;;;;;47.05;35.97;;;18.30;99.90;;;;;;6158005;23;20364;-94
2023/05/09 09:13:12;;;;;;;47.33;35.83;;;18.80;99.90;;;;;;6157471;23;20370;-93
2023/05/09 09:15:40;;;;;;;44.00;33.38;;;18.80;99.90;;;;;;6158426;23;20372;-95
2023/05/09 09:18:11;;;;;;;41.92;33.40;;;18.70;99.90;;;;;;6156908;23;20372;-93
2023/05/09 09:20:44;;;;;;;41.78;32.95;;;18.60;99.90;;;;;;6158941;23;20364;-94
2023/05/09 09:23:11;;;;;;;41.05;32.25;;;19.10;99.90;;;;;;6157624;23;20399;-93
2023/05/09 09:25:37;;;;;;;38.13;31.13;;;18.90;99.90;;;;;;6157646;23;20376;-92
2023/05/09 09:28:04;;;;;;;38.35;30.33;;;19.40;99.90;;;;;;6157777;23;20471;-92
2023/05/09 09:30:29;;;;;;;35.80;29.88;;;19.10;99.90;;;;;;6156940;23;20693;-94
2023/05/09 09:32:58;;;;;;;31.67;26.57;;;19.40;99.90;;;;;;6158949;23;20379;-92
2023/05/09 09:35:23;;;;;;;34.50;26.97;;;19.40;99.90;;;;;;6156890;23;20403;-93
2023/05/09 09:37:56;;;;;;;32.33;26.83;;;19.40;99.90;;;;;;6185603;23;20871;-93
2023/05/09 09:40:23;;;;;;;33.25;27.45;;;19.80;99.90;;;;;;6157195;23;20402;-93
2023/05/09 09:42:51;;;;;;;32.10;26.13;;;19.70;99.90;;;;;;6182990;23;20371;-94
2023/05/09 09:45:18;;;;;;;31.10;24.85;;;19.50;99.90;;;;;;6157675;23;20404;-94
2023/05/09 09:47:46;;;;;;;29.43;24.17;;;19.80;99.90;;;;;;6157124;23;20399;-94
2023/05/09 09:50:16;;;;;;;28.02;23.75;;;19.80;99.90;;;;;;6158183;23;20371;-94
2023/05/09 09:53:00;;;;;;;29.15;23.20;;;19.50;99.90;;;;;;6156812;23;20367;-95
2023/05/09 09:55:26;;;;;;;28.23;24.17;;;19.50;99.90;;;;;;6159499;23;20367;-94
2023/05/09 09:57:52;;;;;;;28.55;23.15;;;19.90;99.90;;;;;;6157095;23;20445;-94
2023/05/09 10:00:26;;;;;;;28.70;22.20;;;19.80;99.90;;;;;;6158184;23;20397;-94
2023/05/09 10:02:55;;;;;;;26.17;21.90;;;19.70;99.90;;;;;;6157880;23;20378;-93
2023/05/09 10:05:28;;;;;;;23.17;19.95;;;19.70;99.90;;;;;;6157186;23;20879;-93
2023/05/09 10:07:58;;;;;;;25.60;19.88;;;19.80;99.90;;;;;;6158038;23;20395;-91
2023/05/09 10:10:30;;;;;;;24.13;20.38;;;19.70;99.90;;;;;;6156446;23;20478;-94
2023/05/09 10:12:57;;;;;;;24.63;20.90;;;19.70;99.90;;;;;;6159158;23;20422;-91
2023/05/09 10:15:24;;;;;;;24.80;20.17;;;19.60;99.90;;;;;;6156923;23;20887;-94
2023/05/09 10:17:54;;;;;;;25.27;20.33;;;19.70;99.90;;;;;;6157503;23;20372;-91
2023/05/09 10:20:20;;;;;;;23.65;19.77;;;19.60;99.90;;;;;;6158042;23;20368;-93
2023/05/09 10:22:47;;;;;;;25.73;20.50;;;20.40;99.90;;;;;;6159549;23;20364;-94
2023/05/09 10:25:27;;;;;;;22.83;20.33;;;20.00;99.90;;;;;;6158106;23;20375;-94
2023/05/09 10:27:58;;;;;;;24.05;19.92;;;19.50;99.90;;;;;;6156630;23;20395;-94
2023/05/09 10:30:33;;;;;;;23.02;19.92;;;19.60;99.90;;;;;;6158126;23;20372;-94
2023/05/09 10:33:12;;;;;;;21.60;18.90;;;19.90;99.90;;;;;;6156767;23;20471;-93
2023/05/09 10:35:45;;;;;;;21.90;18.75;;;19.50;99.90;;;;;;6156989;23;20458;-94
2023/05/09 10:38:12;;;;;;;21.50;19.20;;;19.50;99.90;;;;;;6184055;23;20376;-94
2023/05/09 10:40:42;;;;;;;22.77;19.30;;;19.50;99.90;;;;;;6156961;23;20385;-94
2023/05/09 10:43:08;;;;;;;22.60;19.50;;;19.50;99.90;;;;;;6157372;23;20402;-93
2023/05/09 10:45:34;;;;;;;22.85;20.35;;;19.80;99.90;;;;;;6180826;23;20379;-92
2023/05/09 10:48:02;;;;;;;24.17;19.60;;;19.60;99.90;;;;;;6156155;23;20406;-94
2023/05/09 10:50:30;;;;;;;21.55;19.25;;;19.50;99.90;;;;;;6154925;23;20368;-94
2023/05/09 10:53:06;;;;;;;22.75;19.70;;;19.60;99.90;;;;;;6157433;23;20399;-93
2023/05/09 10:55:59;;;;;;;22.52;19.48;;;19.70;99.90;;;;;;6157275;23;20845;-94
2023/05/09 10:58:32;;;;;;;22.77;20.38;;;19.40;99.90;;;;;;6155979;23;20393;-93
2023/05/09 11:01:09;;;;;;;22.40;20.00;;;19.50;99.90;;;;;;6158718;23;20372;-94
2023/05/09 11:03:55;;;;;;;23.40;19.67;;;19.40;99.90;;;;;;6157111;23;20400;-94
2023/05/09 11:06:47;;;;;;;21.75;19.55;;;19.40;99.90;;;;;;6156654;23;20391;-93
2023/05/09 11:09:25;;;;;;;21.80;19.20;;;19.50;99.90;;;;;;6157451;23;20470;-91
2023/05/09 11:11:52;;;;;;;21.30;19.02;;;19.20;99.90;;;;;;6157165;23;20423;-92
2023/05/09 11:14:38;;;;;;;22.07;18.97;;;19.10;99.90;;;;;;6157731;23;20403;-93
2023/05/09 11:17:05;;;;;;;20.55;17.95;;;19.10;99.90;;;;;;6157183;23;20448;-93
2023/05/09 11:19:51;;;;;;;20.45;18.10;;;19.10;99.90;;;;;;6159115;23;20372;-92
2023/05/09 11:22:23;;;;;;;20.23;17.77;;;19.00;99.90;;;;;;6156497;23;20379;-93
2023/05/09 11:25:03;;;;;;;20.95;18.75;;;18.90;99.90;;;;;;6156037;23;20380;-93
2023/05/09 11:27:42;;;;;;;23.50;19.93;;;18.80;99.90;;;;;;6156482;23;20396;-94
2023/05/09 11:30:10;;;;;;;24.47;21.87;;;18.70;99.90;;;;;;6156611;23;20367;-93
2023/05/09 11:32:44;;;;;;;24.23;21.73;;;18.70;99.90;;;;;;6156830;23;20476;-95
2023/05/09 11:35:19;;;;;;;21.65;19.38;;;19.00;99.90;;;;;;6157679;23;20371;-92
2023/05/09 11:37:59;;;;;;;22.42;20.13;;;18.70;99.90;;;;;;6156875;23;20383;-94
2023/05/09 11:40:25;;;;;;;22.02;19.42;;;18.80;99.90;;;;;;6157198;23;20387;-93
2023/05/09 11:42:54;;;;;;;21.52;19.25;;;18.90;99.90;;;;;;6156439;23;20503;-92
2023/05/09 11:45:20;;;;;;;21.90;19.60;;;19.10;99.90;;;;;;6157174;23;20450;-94
2023/05/09 11:47:46;;;;;;;23.75;19.60;;;19.60;99.90;;;;;;6157038;23;20395;-93
2023/05/09 11:50:14;;;;;;;21.45;19.15;;;19.20;99.90;;;;;;6156895;23;20395;-95
2023/05/09 11:52:41;;;;;;;21.55;19.45;;;19.30;99.90;;;;;;6157215;23;20372;-91
2023/05/09 11:55:09;;;;;;;21.45;19.15;;;19.50;99.90;;;;;;6157796;23;20469;-94
2023/05/09 11:57:40;;;;;;;21.92;19.65;;;19.50;99.90;;;;;;6157503;23;20453;-93
2023/05/09 12:00:08;;;;;;;21.80;18.77;;;19.60;99.90;;;;;;6156745;23;20371;-94
2023/05/09 12:02:34;;;;;;;20.98;18.77;;;19.50;99.90;;;;;;6158058;23;20387;-93
2023/05/09 12:05:10;;;;;;;22.45;20.00;;;19.50;99.90;;;;;;6156078;23;20880;-93
2023/05/09 12:07:38;;;;;;;22.42;20.05;;;19.50;99.90;;;;;;6156127;23;20391;-95
2023/05/09 12:10:19;;;;;;;24.15;21.33;;;19.50;99.90;;;;;;6156919;23;20366;-94
2023/05/09 12:12:49;;;;;;;26.55;23.60;;;19.40;99.90;;;;;;6157148;23;20391;-92
2023/05/09 12:15:16;;;;;;;29.63;25.45;;;19.20;99.90;;;;;;6159452;23;20367;-96
2023/05/09 12:17:43;;;;;;;28.48;25.35;;;19.20;99.90;;;;;;6157926;23;20367;-94
2023/05/09 12:20:09;;;;;;;32.33;27.42;;;18.90;99.90;;;;;;6158740;23;20465;-92
2023/05/09 12:22:38;;;;;;;30.08;26.80;;;18.80;99.90;;;;;;6158337;23;20363;-95
2023/05/09 12:25:07;;;;;;;30.58;26.92;;;19.10;99.90;;;;;;6158321;23;20528;-93
2023/05/09 12:27:34;;;;;;;30.55;27.23;;;18.80;99.90;;;;;;6158504;23;20395;-94
2023/05/09 12:30:08;;;;;;;31.90;28.48;;;18.70;99.90;;;;;;6158366;23;20372;-92
2023/05/09 12:32:36;;;;;;;31.58;28.17;;;18.60;99.90;;;;;;6159075;23;20376;-92
2023/05/09 12:35:02;;;;;;;34.58;30.65;;;18.60;99.90;;;;;;6157608;23;20406;-92
2023/05/09 12:37:32;;;;;;;35.35;30.70;;;18.50;99.90;;;;;;6158497;23;20364;-96
2023/05/09 12:40:10;;;;;;;33.87;29.30;;;18.30;99.90;;;;;;6182759;23;20378;-94
2023/05/09 12:42:35;;;;;;;33.78;30.13;;;18.40;99.90;;;;;;6157390;23;20454;-93
2023/05/09 12:45:02;;;;;;;33.67;30.17;;;18.60;99.90;;;;;;6158353;23;20416;-94
2023/05/09 12:47:31;;;;;;;36.03;32.13;;;18.40;99.90;;;;;;6157635;23;20392;-95
2023/05/09 12:50:02;;;;;;;33.85;30.30;;;18.70;99.90;;;;;;6159499;23;20860;-92
2023/05/09 12:52:36;;;;;;;36.30;32.47;;;18.30;99.90;;;;;;6157593;23;20400;-94
2023/05/09 12:55:14;;;;;;;35.63;31.85;;;18.80;99.90;;;;;;6159818;23;20881;-94
2023/05/09 12:57:55;;;;;;;35.90;32.15;;;18.50;99.90;;;;;;6184315;23;20380;-94